Historique des mesures à Cassis (13260), France
Quotidien Résumé Mars 17, 2017 Unités:  US    Métrique   Métrique/US
« Précédent (Jour)
Suivant (Jour) »
Quotidien Hebdomadaire Mensuel Annuel Période au choix
  Maximum: Minimum: Moyenne:
Température: 32 °F 47.8 °F 54.5 °F
Point de rosée: 32 °F 38.5 °F 45.5 °F
Humidité: Humidity % 63 % 68 %
Vitesse du vent: WindSpeedKMH mph 0.0 mph 2.6 mph
Rafales: WindSpeedGustKMH mph - -
Vent:- - South
Pression: 0 in 30 in -
Précipitations: 0 in    
Historical Graphs
 
 
Mesures pour : Mars 17, 2017
Heure Temperature Point de rosée Pression Vent Vitesse du vent Rafales Humidité Pluie (par heure) Conditions
32 °F 32 °F 0 in Calm     Humidity % 0 in SoftwareType W/m2
00:11 52.3 °F 40.5 °F 30.1 in Calm     64 % 0 in open2300-1.11 W/m2
01:10 51.4 °F 40.8 °F 30.1 in North 2.9 mph 2.9 mph 67 % 0 in open2300-1.11 W/m2
02:11 52.3 °F 40.1 °F 30.1 in Calm     63 % 0 in open2300-1.11 W/m2
03:10 50.4 °F 40.3 °F 30.1 in Calm   2.1 mph 68 % 0 in open2300-1.11 W/m2
04:11 50.7 °F 38.5 °F 30.1 in Calm   2.1 mph 63 % 0 in open2300-1.11 W/m2
05:10 49.8 °F 39.4 °F 30.1 in NNW 1.8 mph 1.8 mph 67 % 0 in open2300-1.11 W/m2
06:11 48.7 °F 39.7 °F 30.1 in Calm     71 % 0 in open2300-1.11 W/m2
07:10 47.8 °F 38.8 °F 30.1 in Calm     71 % 0 in open2300-1.11 W/m2
08:11 50.2 °F 42.4 °F 30.1 in Calm     75 % 0 in open2300-1.11 W/m2
09:10 52.7 °F 45.3 °F 30.1 in Calm     76 % 0 in open2300-1.11 W/m2
10:11 54.1 °F 47.1 °F 30.1 in ENE 2.1 mph 2.6 mph 77 % 0 in open2300-1.11 W/m2
11:10 58.8 °F 50.5 °F 30.1 in SSE 7.9 mph 7.9 mph 74 % 0 in open2300-1.11 W/m2
12:11 61.5 °F 52.5 °F 30.1 in ESE 4.0 mph 9.7 mph 72 % 0 in open2300-1.11 W/m2
13:10 63.1 °F 52.9 °F 30.1 in SSE 3.2 mph 11.1 mph 69 % 0 in open2300-1.11 W/m2
14:11 62.4 °F 52.2 °F 30 in South 5.0 mph 7.9 mph 69 % 0 in open2300-1.11 W/m2
15:10 61.7 °F 52.2 °F 30 in SW 5.8 mph 5.8 mph 71 % 0 in open2300-1.11 W/m2
16:11 61 °F 51.6 °F 30 in SE 5.0 mph 5.0 mph 71 % 0 in open2300-1.11 W/m2
17:10 60.1 °F 50.7 °F 30 in SSE 9.0 mph 9.0 mph 71 % 0 in open2300-1.11 W/m2
18:11 59.4 °F 50.7 °F 30 in SE 1.4 mph 2.1 mph 73 % 0 in open2300-1.11 W/m2
19:10 57.7 °F 49.5 °F 30 in Calm   2.6 mph 74 % 0 in open2300-1.11 W/m2
20:11 56.1 °F 48.2 °F 30 in NW 9.3 mph 9.3 mph 75 % 0 in open2300-1.11 W/m2
21:10 55.6 °F 47.5 °F 30 in NW 7.6 mph 19.1 mph 74 % 0 in open2300-1.11 W/m2
22:11 55.2 °F 47.7 °F 30 in Calm     76 % 0 in open2300-1.11 W/m2
23:10 55.2 °F 47.5 °F 30 in Calm   1.4 mph 75 % 0 in open2300-1.11 W/m2
Observations météo à CASSIS
WU-History script by Weather Underground - 1 mb